Time;durP1;ratioP1;P1;durP2;ratioP2;P2;SDS_P1;SDS_P2;PMS_P1;PMS_P2;Temp;Humidity;BMP_temperature;BMP_pressure;BME280_temperature;BME280_humidity;BME280_pressure;Samples;Min_cycle;Max_cycle;Signal;HPM_P1;HPM_P2
2024/01/03 00:00:03;;;;;;;2.23;1.07;;;21.90;79.20;;;;;;5011688;28;20548;-54
2024/01/03 00:02:32;;;;;;;3.30;1.33;;;21.90;79.40;;;;;;5009250;28;20469;-51
2024/01/03 00:05:01;;;;;;;2.17;1.07;;;21.90;79.60;;;;;;5011993;28;20463;-55
2024/01/03 00:07:30;;;;;;;1.83;1.10;;;21.90;79.60;;;;;;5014543;28;20480;-56
2024/01/03 00:10:00;;;;;;;2.57;1.30;;;21.90;79.80;;;;;;5008642;28;20461;-54
2024/01/03 00:12:28;;;;;;;2.70;1.40;;;21.90;79.80;;;;;;5011089;28;20504;-52
2024/01/03 00:14:56;;;;;;;2.53;1.30;;;21.90;79.90;;;;;;5013756;28;20844;-55
2024/01/03 00:17:30;;;;;;;3.87;1.10;;;21.90;79.90;;;;;;5012452;28;20584;-56
2024/01/03 00:20:03;;;;;;;2.27;1.30;;;21.80;79.80;;;;;;5011765;28;20564;-53
2024/01/03 00:22:30;;;;;;;2.40;0.90;;;21.80;79.90;;;;;;5009724;28;21068;-53
2024/01/03 00:25:00;;;;;;;2.57;1.30;;;21.80;79.90;;;;;;5012175;28;20466;-56
2024/01/03 00:27:29;;;;;;;2.30;0.90;;;21.80;80.00;;;;;;5012301;28;20835;-55
2024/01/03 00:30:07;;;;;;;1.67;1.13;;;21.80;80.00;;;;;;5010913;28;20460;-55
2024/01/03 00:32:34;;;;;;;1.43;0.90;;;21.70;79.90;;;;;;5016302;28;20462;-54
2024/01/03 00:35:09;;;;;;;2.37;0.97;;;21.70;80.00;;;;;;5013640;28;20470;-57
2024/01/03 00:37:36;;;;;;;2.87;1.00;;;21.70;80.00;;;;;;5016212;28;20466;-53
2024/01/03 00:40:06;;;;;;;1.43;1.17;;;21.70;80.00;;;;;;5008741;28;21262;-56
2024/01/03 00:42:33;;;;;;;1.77;1.00;;;21.70;80.10;;;;;;5019061;28;20462;-55
2024/01/03 00:45:02;;;;;;;2.70;1.30;;;21.70;80.20;;;;;;5012183;28;20776;-55
2024/01/03 00:47:31;;;;;;;1.13;0.87;;;21.60;80.10;;;;;;5010902;28;20486;-53
2024/01/03 00:49:58;;;;;;;1.43;0.97;;;21.60;80.10;;;;;;5019402;28;20465;-56
2024/01/03 00:52:26;;;;;;;1.67;1.03;;;21.60;80.20;;;;;;5012157;28;20465;-58
2024/01/03 00:54:54;;;;;;;2.40;1.23;;;21.60;80.10;;;;;;5014198;28;20463;-54
2024/01/03 00:57:21;;;;;;;2.63;1.10;;;21.50;80.10;;;;;;5010893;28;20873;-55
2024/01/03 00:59:48;;;;;;;1.57;1.00;;;21.50;80.10;;;;;;5013910;28;20466;-53
2024/01/03 01:02:14;;;;;;;1.60;1.10;;;21.50;80.30;;;;;;5011896;28;20923;-55
2024/01/03 01:04:43;;;;;;;1.63;0.90;;;21.50;80.30;;;;;;5012357;28;20548;-55
2024/01/03 01:07:19;;;;;;;1.97;1.43;;;21.50;80.20;;;;;;5010229;28;20501;-57
2024/01/03 01:09:53;;;;;;;3.63;1.10;;;21.50;80.30;;;;;;5011927;28;20463;-51
2024/01/03 01:12:21;;;;;;;3.17;1.80;;;21.40;80.20;;;;;;5013306;28;20465;-53
2024/01/03 01:14:49;;;;;;;1.80;1.30;;;21.40;80.20;;;;;;5012161;28;20874;-56
2024/01/03 01:17:18;;;;;;;1.45;1.10;;;21.40;80.50;;;;;;5017050;28;20471;-53
2024/01/03 01:19:51;;;;;;;3.80;1.30;;;21.40;80.50;;;;;;5016552;28;20200;-54
2024/01/03 01:22:17;;;;;;;1.63;1.02;;;21.30;80.40;;;;;;5015852;28;20467;-55
2024/01/03 01:24:47;;;;;;;1.83;1.00;;;21.30;80.20;;;;;;5018286;28;20686;-55
2024/01/03 01:27:14;;;;;;;2.50;1.47;;;21.30;80.40;;;;;;5011811;28;20212;-52
2024/01/03 01:29:44;;;;;;;1.73;0.97;;;21.30;80.30;;;;;;5008728;28;20462;-58
2024/01/03 01:32:15;;;;;;;1.52;0.80;;;21.30;80.40;;;;;;5018797;28;21259;-55
2024/01/03 01:34:42;;;;;;;2.00;1.00;;;21.30;80.30;;;;;;5016209;28;20203;-59
2024/01/03 01:37:17;;;;;;;1.67;0.80;;;21.30;80.30;;;;;;5014354;28;20195;-51
2024/01/03 01:39:46;;;;;;;1.50;0.83;;;21.30;80.40;;;;;;5005859;28;20250;-58
2024/01/03 01:42:16;;;;;;;2.10;1.43;;;21.30;80.40;;;;;;5008444;28;20458;-54
2024/01/03 01:44:45;;;;;;;2.35;0.98;;;21.30;80.50;;;;;;5012238;28;20530;-53
2024/01/03 01:47:14;;;;;;;3.38;1.15;;;21.30;80.50;;;;;;5011796;28;20219;-55
2024/01/03 01:49:42;;;;;;;1.20;1.00;;;21.20;80.40;;;;;;5016568;28;20199;-55
2024/01/03 01:52:14;;;;;;;2.55;1.10;;;21.20;80.50;;;;;;5008109;28;20199;-56
2024/01/03 01:54:42;;;;;;;1.80;1.10;;;21.20;80.40;;;;;;5013540;28;20639;-53
2024/01/03 01:57:20;;;;;;;1.73;1.15;;;21.20;80.60;;;;;;5012949;28;20466;-55
2024/01/03 01:59:50;;;;;;;2.05;1.08;;;21.10;80.30;;;;;;5015051;28;20202;-53
2024/01/03 02:02:17;;;;;;;1.38;0.88;;;21.10;80.70;;;;;;5010973;28;20533;-58
2024/01/03 02:04:48;;;;;;;1.60;0.90;;;21.10;80.60;;;;;;5009313;28;20196;-55
2024/01/03 02:07:20;;;;;;;2.15;0.93;;;21.10;80.60;;;;;;5015879;28;20231;-54
2024/01/03 02:09:47;;;;;;;1.53;1.10;;;21.10;80.60;;;;;;5013326;28;20200;-55
2024/01/03 02:12:18;;;;;;;1.20;0.88;;;21.10;80.70;;;;;;5012274;28;20461;-56
2024/01/03 02:14:46;;;;;;;1.57;1.07;;;21.00;80.60;;;;;;5013198;28;20204;-59
2024/01/03 02:17:15;;;;;;;1.80;1.27;;;21.00;80.60;;;;;;5009168;28;21300;-52
2024/01/03 02:19:45;;;;;;;1.83;1.10;;;21.00;80.80;;;;;;5014124;28;20436;-53
2024/01/03 02:22:16;;;;;;;1.50;1.10;;;21.00;81.60;;;;;;5012192;28;20548;-54
2024/01/03 02:24:45;;;;;;;1.63;1.10;;;21.00;80.80;;;;;;5016096;28;20191;-52
2024/01/03 02:27:13;;;;;;;1.95;1.30;;;21.00;80.60;;;;;;5014873;28;20220;-54
2024/01/03 02:29:42;;;;;;;2.35;1.23;;;21.00;80.90;;;;;;5016537;28;20711;-56
2024/01/03 02:32:09;;;;;;;2.47;1.23;;;21.00;80.90;;;;;;5015984;28;20199;-54
2024/01/03 02:34:45;;;;;;;1.30;0.90;;;21.00;80.90;;;;;;5018629;28;20191;-56
2024/01/03 02:37:14;;;;;;;2.55;0.95;;;21.00;80.80;;;;;;5015389;28;20195;-53
2024/01/03 02:39:42;;;;;;;1.63;0.93;;;21.00;80.70;;;;;;5015701;28;20214;-53
2024/01/03 02:42:11;;;;;;;1.60;1.02;;;20.90;80.60;;;;;;5014980;28;20195;-58
2024/01/03 02:44:39;;;;;;;1.85;1.20;;;20.90;80.60;;;;;;5019237;28;20217;-53
2024/01/03 02:47:07;;;;;;;1.60;0.90;;;20.90;80.50;;;;;;5013937;28;20224;-52
2024/01/03 02:49:38;;;;;;;1.73;0.83;;;20.90;80.70;;;;;;5011601;28;20191;-54
2024/01/03 02:52:05;;;;;;;2.03;1.00;;;21.00;80.70;;;;;;5014915;28;20465;-55
2024/01/03 02:54:35;;;;;;;1.40;0.90;;;20.90;80.60;;;;;;5013679;28;20207;-57
2024/01/03 02:57:03;;;;;;;2.58;0.90;;;20.90;80.90;;;;;;5011537;28;20203;-56
2024/01/03 02:59:30;;;;;;;1.92;0.95;;;20.90;80.80;;;;;;5016091;28;20279;-56
2024/01/03 03:01:58;;;;;;;1.60;0.90;;;20.90;80.60;;;;;;5012934;28;20199;-58
2024/01/03 03:04:25;;;;;;;1.63;1.00;;;20.90;81.00;;;;;;5013382;28;20323;-55
2024/01/03 03:06:53;;;;;;;4.50;1.05;;;20.80;80.60;;;;;;5014614;28;20683;-55
2024/01/03 03:09:19;;;;;;;1.40;1.02;;;20.80;80.50;;;;;;5015811;28;20624;-51
2024/01/03 03:11:49;;;;;;;1.27;0.80;;;20.80;81.00;;;;;;5008366;28;20296;-58
2024/01/03 03:14:15;;;;;;;1.38;0.95;;;20.80;80.70;;;;;;5015098;28;20203;-58
2024/01/03 03:16:42;;;;;;;1.52;1.00;;;20.80;80.60;;;;;;5018061;28;20567;-52
2024/01/03 03:19:10;;;;;;;2.13;1.00;;;20.80;80.60;;;;;;5014350;28;20437;-56
2024/01/03 03:21:38;;;;;;;1.00;0.90;;;20.80;80.70;;;;;;5011023;28;20195;-57
2024/01/03 03:24:10;;;;;;;1.75;0.80;;;20.80;80.60;;;;;;5007729;28;20742;-53
2024/01/03 03:26:38;;;;;;;1.55;0.90;;;20.70;80.70;;;;;;5014223;28;20200;-55
2024/01/03 03:29:06;;;;;;;1.27;0.93;;;20.70;80.70;;;;;;5009206;28;20199;-57
2024/01/03 03:31:37;;;;;;;1.38;0.98;;;20.70;80.50;;;;;;5014987;28;20302;-57
2024/01/03 03:34:07;;;;;;;1.13;0.90;;;20.70;80.60;;;;;;5013305;28;20200;-57
2024/01/03 03:36:33;;;;;;;1.65;1.15;;;20.70;80.60;;;;;;5013352;28;20199;-58
2024/01/03 03:39:00;;;;;;;1.73;0.80;;;20.70;80.60;;;;;;5007161;28;20295;-54
2024/01/03 03:41:29;;;;;;;1.60;0.90;;;20.70;80.70;;;;;;5014330;28;20225;-54
2024/01/03 03:43:58;;;;;;;2.00;0.85;;;20.70;80.70;;;;;;5011982;28;20191;-52
2024/01/03 03:46:27;;;;;;;1.70;1.23;;;20.60;80.70;;;;;;5016170;28;20639;-53
2024/01/03 03:48:57;;;;;;;1.80;0.80;;;20.60;80.70;;;;;;5017085;28;20539;-57
2024/01/03 03:51:34;;;;;;;2.15;1.00;;;20.60;80.80;;;;;;5017816;28;20207;-55
2024/01/03 03:54:06;;;;;;;1.65;1.00;;;20.60;80.80;;;;;;5011385;28;20573;-56
2024/01/03 03:56:33;;;;;;;1.20;0.80;;;20.60;80.90;;;;;;5016164;28;20183;-56
2024/01/03 03:59:00;;;;;;;1.13;0.90;;;20.60;80.80;;;;;;5012720;28;20337;-56
2024/01/03 04:01:28;;;;;;;1.93;1.20;;;20.60;80.90;;;;;;5013403;28;20191;-56
2024/01/03 04:03:56;;;;;;;1.27;0.88;;;20.60;81.00;;;;;;5012318;28;21730;-56
2024/01/03 04:06:25;;;;;;;1.60;0.98;;;20.60;80.90;;;;;;5011277;28;20192;-56
2024/01/03 04:08:58;;;;;;;1.85;1.00;;;20.60;80.90;;;;;;5010755;28;20843;-57
2024/01/03 04:11:25;;;;;;;2.45;0.82;;;20.60;81.00;;;;;;5017411;28;20846;-55
2024/01/03 04:13:51;;;;;;;1.38;0.80;;;20.60;80.90;;;;;;5015412;28;20203;-56
2024/01/03 04:16:24;;;;;;;1.65;1.10;;;20.60;81.00;;;;;;5014856;28;20195;-58
2024/01/03 04:18:54;;;;;;;1.00;0.80;;;20.60;80.90;;;;;;5015306;28;20204;-56
2024/01/03 04:21:23;;;;;;;1.60;1.00;;;20.60;80.90;;;;;;5010006;28;20246;-57
2024/01/03 04:23:50;;;;;;;2.45;1.30;;;20.60;80.80;;;;;;5014891;28;20210;-58
2024/01/03 04:26:22;;;;;;;1.63;0.90;;;20.60;80.90;;;;;;5012839;28;20202;-54
2024/01/03 04:28:49;;;;;;;2.00;1.00;;;20.60;80.90;;;;;;5018745;28;20228;-56
2024/01/03 04:31:16;;;;;;;1.92;0.90;;;20.60;80.90;;;;;;5014895;28;20203;-56
2024/01/03 04:33:45;;;;;;;1.05;0.70;;;20.50;81.20;;;;;;5010243;28;20203;-54
2024/01/03 04:36:13;;;;;;;2.03;1.00;;;20.50;81.00;;;;;;5015858;28;20220;-55
2024/01/03 04:38:40;;;;;;;1.35;0.90;;;20.50;81.00;;;;;;5015345;28;20205;-57
2024/01/03 04:41:07;;;;;;;2.75;0.98;;;20.50;81.00;;;;;;5014335;28;20207;-56
2024/01/03 04:43:33;;;;;;;1.40;1.20;;;20.50;80.90;;;;;;5014267;28;20198;-53
2024/01/03 04:46:03;;;;;;;1.75;0.82;;;20.50;81.10;;;;;;5017390;28;20230;-56
2024/01/03 04:48:31;;;;;;;1.00;0.70;;;20.50;81.10;;;;;;5017813;28;20830;-58
2024/01/03 04:51:04;;;;;;;2.17;1.00;;;20.50;81.20;;;;;;5012418;28;20199;-56
2024/01/03 04:53:32;;;;;;;2.05;0.90;;;20.50;81.30;;;;;;5013914;28;20606;-56
2024/01/03 04:55:59;;;;;;;1.20;1.00;;;20.40;81.30;;;;;;5020620;28;20231;-57
2024/01/03 04:58:26;;;;;;;1.40;1.08;;;20.40;80.90;;;;;;5016180;28;20282;-58
2024/01/03 05:00:53;;;;;;;1.58;0.93;;;20.40;81.20;;;;;;5018953;28;20195;-54
2024/01/03 05:03:26;;;;;;;1.88;0.80;;;20.40;81.00;;;;;;5017964;28;20663;-55
2024/01/03 05:05:52;;;;;;;1.20;0.80;;;20.40;81.50;;;;;;5016395;28;20294;-55
2024/01/03 05:08:21;;;;;;;1.70;1.30;;;20.40;81.20;;;;;;5018119;28;20488;-52
2024/01/03 05:10:49;;;;;;;1.60;0.90;;;20.40;81.30;;;;;;5013000;28;20207;-58
2024/01/03 05:13:16;;;;;;;1.25;0.82;;;20.40;81.30;;;;;;5017339;28;20207;-54
2024/01/03 05:15:45;;;;;;;1.15;0.95;;;20.40;81.40;;;;;;5018080;28;20199;-51
2024/01/03 05:18:12;;;;;;;1.80;1.48;;;20.40;81.30;;;;;;5018157;28;21040;-54
2024/01/03 05:20:38;;;;;;;2.55;1.02;;;20.30;81.60;;;;;;5021559;28;20205;-54
2024/01/03 05:23:09;;;;;;;1.00;0.73;;;20.40;81.30;;;;;;5020033;28;20196;-54
2024/01/03 05:25:37;;;;;;;2.20;1.13;;;20.40;81.30;;;;;;5018283;28;20195;-57
2024/01/03 05:28:08;;;;;;;1.73;0.85;;;20.40;81.30;;;;;;5014000;28;20219;-53
2024/01/03 05:30:37;;;;;;;1.50;0.80;;;20.40;81.50;;;;;;5022269;28;20199;-57
2024/01/03 05:33:04;;;;;;;1.48;0.80;;;20.40;81.30;;;;;;5017630;28;20207;-54
2024/01/03 05:35:32;;;;;;;1.13;0.82;;;20.40;81.10;;;;;;5016450;28;20203;-52
2024/01/03 05:38:00;;;;;;;1.40;0.90;;;20.40;81.40;;;;;;5019950;28;20503;-57
2024/01/03 05:40:27;;;;;;;1.80;1.00;;;20.40;81.40;;;;;;5017674;28;20206;-55
2024/01/03 05:42:54;;;;;;;1.40;0.98;;;20.40;81.30;;;;;;5016949;28;20215;-52
2024/01/03 05:45:23;;;;;;;1.08;0.80;;;20.40;81.30;;;;;;5012680;28;20230;-52
2024/01/03 05:47:50;;;;;;;1.63;0.90;;;20.30;81.40;;;;;;5012299;28;20683;-55
2024/01/03 05:50:20;;;;;;;1.30;0.80;;;20.40;81.30;;;;;;5016314;28;20279;-56
2024/01/03 05:52:49;;;;;;;1.13;0.75;;;20.30;81.10;;;;;;5015140;28;20760;-54
2024/01/03 05:55:16;;;;;;;1.10;0.70;;;20.30;81.20;;;;;;5021972;28;20632;-52
2024/01/03 05:57:43;;;;;;;1.63;0.93;;;20.30;81.20;;;;;;5018018;28;20929;-54
2024/01/03 06:00:11;;;;;;;1.92;0.98;;;20.30;81.20;;;;;;5016478;28;20211;-57
2024/01/03 06:02:45;;;;;;;1.23;0.77;;;20.30;81.20;;;;;;5016031;28;20203;-57
2024/01/03 06:05:16;;;;;;;0.90;0.60;;;20.30;81.20;;;;;;5015502;28;20204;-55
2024/01/03 06:07:45;;;;;;;2.28;1.33;;;20.30;81.30;;;;;;5019940;28;20662;-58
2024/01/03 06:10:12;;;;;;;1.30;0.90;;;20.30;81.50;;;;;;5012454;28;20222;-52
2024/01/03 06:12:40;;;;;;;1.10;0.80;;;20.30;81.50;;;;;;5019075;28;20302;-57
2024/01/03 06:15:07;;;;;;;1.75;0.90;;;20.30;81.50;;;;;;5019461;28;20294;-52
2024/01/03 06:17:34;;;;;;;1.15;0.80;;;20.20;81.40;;;;;;5017786;28;20188;-53
2024/01/03 06:20:07;;;;;;;1.20;0.80;;;20.20;81.40;;;;;;5016656;28;20217;-58
2024/01/03 06:22:34;;;;;;;1.00;0.80;;;20.30;81.70;;;;;;5014525;28;20204;-56
2024/01/03 06:25:00;;;;;;;1.75;0.90;;;20.20;81.40;;;;;;5021368;28;20195;-52
2024/01/03 06:27:29;;;;;;;1.55;0.90;;;20.20;81.20;;;;;;5016305;28;29062;-52
2024/01/03 06:29:56;;;;;;;1.73;0.90;;;20.20;81.10;;;;;;5014304;28;20881;-56
2024/01/03 06:32:24;;;;;;;1.65;1.00;;;20.20;81.30;;;;;;5016114;28;20210;-54
2024/01/03 06:34:50;;;;;;;1.63;0.80;;;20.20;81.50;;;;;;5015979;28;20207;-54
2024/01/03 06:37:22;;;;;;;1.67;0.85;;;20.20;81.10;;;;;;5016143;28;20210;-55
2024/01/03 06:39:49;;;;;;;1.83;0.90;;;20.20;81.40;;;;;;5016099;28;20549;-57
2024/01/03 06:42:15;;;;;;;1.40;0.80;;;20.20;81.40;;;;;;5014350;28;20204;-54
2024/01/03 06:44:42;;;;;;;1.42;0.90;;;20.20;81.40;;;;;;5016809;28;20199;-53
2024/01/03 06:47:09;;;;;;;1.13;0.80;;;20.20;81.20;;;;;;5015161;28;20705;-54
2024/01/03 06:49:36;;;;;;;1.33;0.95;;;20.10;81.30;;;;;;5016709;28;20224;-57
2024/01/03 06:52:02;;;;;;;1.30;0.80;;;20.10;81.20;;;;;;5014733;28;20222;-54
2024/01/03 06:54:31;;;;;;;1.00;0.70;;;20.10;81.20;;;;;;5015331;28;20195;-57
2024/01/03 06:57:07;;;;;;;1.27;0.70;;;20.10;81.40;;;;;;5012461;28;20206;-51
2024/01/03 06:59:35;;;;;;;1.70;0.80;;;20.10;81.40;;;;;;5014892;28;20200;-54
2024/01/03 07:02:02;;;;;;;1.05;0.80;;;20.10;82.00;;;;;;5019814;28;20307;-54
2024/01/03 07:04:31;;;;;;;1.85;0.98;;;20.20;81.60;;;;;;5017157;28;20207;-53
2024/01/03 07:07:00;;;;;;;3.78;0.80;;;20.20;81.50;;;;;;5014904;28;20199;-51
2024/01/03 07:09:32;;;;;;;1.52;0.80;;;20.10;81.50;;;;;;5012368;28;20812;-50
2024/01/03 07:12:01;;;;;;;1.50;0.80;;;20.10;81.50;;;;;;5011831;28;20286;-55
2024/01/03 07:14:27;;;;;;;1.40;0.93;;;20.10;81.50;;;;;;5011505;28;20648;-56
2024/01/03 07:16:54;;;;;;;2.20;0.80;;;20.10;81.70;;;;;;5015367;28;20195;-59
2024/01/03 07:19:24;;;;;;;2.20;0.90;;;20.10;81.70;;;;;;5013110;28;20208;-59
2024/01/03 07:21:52;;;;;;;1.60;1.10;;;20.10;81.90;;;;;;5011733;28;20552;-60
2024/01/03 07:24:21;;;;;;;1.80;0.88;;;20.10;82.00;;;;;;5015662;28;20200;-59
2024/01/03 07:26:49;;;;;;;4.47;1.00;;;20.10;82.20;;;;;;5010411;28;20200;-57
2024/01/03 07:29:18;;;;;;;1.30;0.82;;;20.10;82.20;;;;;;5013781;28;20555;-62
2024/01/03 07:31:52;;;;;;;1.52;0.85;;;20.10;82.30;;;;;;5014271;28;20196;-58
2024/01/03 07:34:22;;;;;;;4.80;1.80;;;20.10;82.60;;;;;;5013435;28;20199;-57
2024/01/03 07:36:51;;;;;;;1.15;0.90;;;20.10;83.00;;;;;;5011640;28;20213;-61
2024/01/03 07:39:18;;;;;;;1.60;1.13;;;20.10;83.30;;;;;;5013698;28;20736;-54
2024/01/03 07:41:44;;;;;;;1.20;1.10;;;20.20;83.60;;;;;;5010639;28;20230;-57
2024/01/03 07:44:12;;;;;;;1.38;1.13;;;20.20;83.60;;;;;;5011005;28;20515;-55
2024/01/03 07:46:40;;;;;;;1.20;1.00;;;20.20;83.60;;;;;;5015216;28;20217;-55
2024/01/03 07:49:06;;;;;;;2.78;1.30;;;20.30;83.60;;;;;;5013965;28;20666;-53
2024/01/03 07:51:38;;;;;;;2.50;1.00;;;20.30;83.50;;;;;;5011232;28;20203;-58
2024/01/03 07:54:09;;;;;;;2.80;0.90;;;20.30;83.10;;;;;;5011321;28;20981;-57
2024/01/03 07:56:36;;;;;;;0.90;0.60;;;20.40;83.10;;;;;;5015058;28;20555;-57
2024/01/03 07:59:03;;;;;;;1.20;0.83;;;20.40;82.90;;;;;;5012972;28;20669;-57
2024/01/03 08:01:35;;;;;;;1.10;0.80;;;20.40;82.90;;;;;;5015573;28;20488;-57
2024/01/03 08:04:06;;;;;;;1.50;0.90;;;20.50;82.90;;;;;;5013392;28;20196;-56
2024/01/03 08:06:32;;;;;;;5.38;1.50;;;20.50;82.80;;;;;;5010831;28;20477;-58
2024/01/03 08:08:59;;;;;;;1.77;1.02;;;20.60;82.90;;;;;;5013043;28;20246;-57
2024/01/03 08:11:26;;;;;;;1.75;0.77;;;20.60;82.60;;;;;;5009171;28;20652;-58
2024/01/03 08:13:55;;;;;;;2.33;1.00;;;20.60;82.50;;;;;;5005828;28;20695;-59
2024/01/03 08:16:24;;;;;;;1.25;0.80;;;20.60;82.40;;;;;;5010259;28;20195;-58
2024/01/03 08:18:56;;;;;;;1.50;0.90;;;20.70;82.30;;;;;;5013195;28;20560;-59
2024/01/03 08:21:25;;;;;;;1.23;0.90;;;20.70;82.20;;;;;;5012607;28;20317;-59
2024/01/03 08:23:51;;;;;;;1.98;0.88;;;20.70;82.00;;;;;;5008551;28;20206;-59
2024/01/03 08:26:23;;;;;;;1.75;1.05;;;20.70;82.00;;;;;;5011243;28;20206;-54
2024/01/03 08:28:58;;;;;;;1.90;0.80;;;20.80;82.10;;;;;;5015915;28;20211;-53
2024/01/03 08:31:24;;;;;;;1.33;0.77;;;20.80;81.80;;;;;;5017822;28;20659;-57
2024/01/03 08:33:54;;;;;;;2.15;0.95;;;20.80;81.80;;;;;;5017897;28;20202;-57
2024/01/03 08:36:21;;;;;;;1.10;0.70;;;20.80;81.80;;;;;;5019836;28;22245;-55
2024/01/03 08:38:50;;;;;;;1.37;0.80;;;20.90;82.60;;;;;;5018745;28;20476;-55
2024/01/03 08:41:18;;;;;;;1.13;0.70;;;20.90;81.60;;;;;;5017097;28;20516;-55
2024/01/03 08:43:47;;;;;;;1.20;0.80;;;20.90;81.60;;;;;;5018066;28;20235;-52
2024/01/03 08:46:14;;;;;;;1.87;1.20;;;20.90;81.40;;;;;;5017091;28;20519;-56
2024/01/03 08:48:41;;;;;;;2.50;0.80;;;21.00;81.40;;;;;;5020818;28;20485;-56
2024/01/03 08:51:18;;;;;;;1.60;0.70;;;21.00;81.50;;;;;;5018630;28;21054;-61
2024/01/03 08:53:47;;;;;;;1.63;0.90;;;21.00;81.70;;;;;;5017870;28;20454;-57
2024/01/03 08:56:17;;;;;;;1.60;0.80;;;21.00;81.80;;;;;;5016845;28;20511;-61
2024/01/03 08:58:45;;;;;;;4.75;1.92;;;21.00;81.70;;;;;;5015551;28;20471;-60
2024/01/03 09:01:16;;;;;;;4.10;0.77;;;21.10;81.90;;;;;;5020292;28;20211;-57
2024/01/03 09:03:47;;;;;;;1.40;0.90;;;21.10;81.80;;;;;;5022440;28;20540;-58
2024/01/03 09:06:19;;;;;;;1.77;0.80;;;21.20;81.80;;;;;;5015869;28;20461;-56
2024/01/03 09:08:46;;;;;;;1.00;0.67;;;21.20;81.80;;;;;;5020155;28;20807;-55
2024/01/03 09:11:14;;;;;;;1.40;0.87;;;21.20;81.80;;;;;;5011295;28;20441;-57
2024/01/03 09:13:41;;;;;;;1.40;0.80;;;21.30;81.90;;;;;;5014211;28;20462;-53
2024/01/03 09:16:09;;;;;;;3.70;0.87;;;21.20;81.70;;;;;;5018954;28;20457;-53
2024/01/03 09:18:36;;;;;;;2.13;1.00;;;21.30;81.70;;;;;;5011373;28;20560;-54
2024/01/03 09:21:03;;;;;;;1.67;1.10;;;21.30;81.80;;;;;;5017645;28;20556;-56
2024/01/03 09:23:36;;;;;;;1.30;0.70;;;21.30;81.70;;;;;;5017212;28;20492;-57
2024/01/03 09:26:04;;;;;;;1.42;0.90;;;21.30;81.30;;;;;;5015008;28;20468;-53
2024/01/03 09:28:31;;;;;;;2.03;0.90;;;21.30;81.20;;;;;;5015636;28;20209;-51
2024/01/03 09:31:01;;;;;;;1.73;1.03;;;21.30;81.40;;;;;;5018308;28;20826;-55
2024/01/03 09:33:28;;;;;;;1.37;0.90;;;21.40;81.30;;;;;;5017446;28;20464;-54
2024/01/03 09:36:01;;;;;;;1.10;0.97;;;21.40;81.50;;;;;;5018265;28;21219;-56
2024/01/03 09:38:29;;;;;;;1.00;0.80;;;21.40;81.20;;;;;;5013869;28;21586;-56
2024/01/03 09:40:59;;;;;;;1.60;0.93;;;21.40;81.30;;;;;;5014369;28;20516;-57
2024/01/03 09:43:26;;;;;;;1.20;0.80;;;21.40;81.20;;;;;;5011147;28;20460;-58
2024/01/03 09:45:57;;;;;;;1.10;0.63;;;21.40;81.00;;;;;;5013294;28;20972;-58
2024/01/03 09:48:31;;;;;;;2.87;0.90;;;21.40;80.90;;;;;;5015119;28;20553;-57
2024/01/03 09:51:03;;;;;;;1.00;0.80;;;21.50;81.10;;;;;;5015811;28;20453;-55
2024/01/03 09:53:32;;;;;;;1.80;0.80;;;21.50;81.00;;;;;;5016463;28;20461;-56
2024/01/03 09:56:02;;;;;;;1.43;0.90;;;21.50;81.00;;;;;;5013740;28;20463;-57
2024/01/03 09:58:35;;;;;;;1.67;1.00;;;21.50;80.80;;;;;;5011593;28;20859;-58
2024/01/03 10:01:04;;;;;;;1.87;0.80;;;21.50;80.90;;;;;;5014522;28;20463;-56
2024/01/03 10:03:31;;;;;;;1.23;0.80;;;21.50;80.90;;;;;;5013295;28;20456;-56
2024/01/03 10:06:15;;;;;;;1.30;0.77;;;21.50;80.80;;;;;;5014708;28;22843;-55
2024/01/03 10:09:03;;;;;;;0.93;0.70;;;21.50;80.80;;;;;;5012133;28;20560;-56
2024/01/03 10:11:33;;;;;;;1.10;0.60;;;21.50;80.70;;;;;;5012590;28;20465;-58
2024/01/03 10:14:17;;;;;;;1.47;0.90;;;21.50;80.70;;;;;;5018769;28;20457;-57
2024/01/03 10:16:44;;;;;;;1.50;0.90;;;21.50;80.60;;;;;;5015468;28;20455;-57
2024/01/03 10:19:13;;;;;;;1.10;0.80;;;21.50;80.70;;;;;;5018983;28;21001;-54
2024/01/03 10:21:47;;;;;;;1.30;0.73;;;21.50;80.40;;;;;;5014789;28;20461;-58
2024/01/03 10:24:14;;;;;;;1.27;0.77;;;21.50;80.50;;;;;;5013852;28;20468;-57
2024/01/03 10:26:42;;;;;;;1.73;0.70;;;21.50;80.50;;;;;;5016349;28;20469;-57
2024/01/03 10:29:10;;;;;;;1.50;0.80;;;21.60;80.60;;;;;;5017455;28;21058;-55
2024/01/03 10:31:38;;;;;;;1.50;1.00;;;21.60;80.60;;;;;;5011525;28;20486;-60
2024/01/03 10:34:05;;;;;;;3.50;0.90;;;21.50;80.40;;;;;;5013086;28;20454;-58
2024/01/03 10:36:35;;;;;;;2.17;0.80;;;21.60;81.30;;;;;;5017146;28;20484;-60
2024/01/03 10:39:06;;;;;;;2.20;1.00;;;21.60;80.70;;;;;;5016084;28;20975;-58
2024/01/03 10:41:34;;;;;;;1.40;0.80;;;21.60;80.90;;;;;;5014745;28;20510;-60
2024/01/03 10:44:06;;;;;;;1.77;0.90;;;21.60;81.10;;;;;;5016682;28;20461;-58
2024/01/03 10:46:35;;;;;;;1.73;1.07;;;21.60;81.10;;;;;;5013474;28;20477;-59
2024/01/03 10:49:03;;;;;;;1.80;0.93;;;21.60;81.20;;;;;;5016851;28;20457;-57
2024/01/03 10:51:37;;;;;;;3.40;1.30;;;21.60;81.30;;;;;;5014077;28;20457;-58
2024/01/03 10:54:12;;;;;;;3.20;1.13;;;21.70;81.50;;;;;;5012743;28;21040;-57
2024/01/03 10:56:39;;;;;;;1.27;0.77;;;21.70;81.60;;;;;;5014566;28;20466;-57
2024/01/03 10:59:11;;;;;;;1.00;0.70;;;21.60;81.50;;;;;;5010547;28;20470;-58
2024/01/03 11:01:45;;;;;;;1.60;0.87;;;21.70;81.60;;;;;;5009352;28;20496;-54
2024/01/03 11:04:23;;;;;;;1.20;0.90;;;21.70;81.70;;;;;;5012429;28;20460;-54
2024/01/03 11:06:53;;;;;;;3.43;1.00;;;21.70;81.60;;;;;;5012615;28;21143;-57
2024/01/03 11:09:31;;;;;;;2.07;1.00;;;21.80;81.80;;;;;;5005620;28;20489;-57
2024/01/03 11:12:08;;;;;;;1.00;0.70;;;21.80;81.90;;;;;;5010605;28;20476;-58
2024/01/03 11:14:38;;;;;;;2.70;1.40;;;21.80;81.80;;;;;;5007527;28;21588;-59
2024/01/03 11:17:12;;;;;;;1.33;0.90;;;21.80;81.90;;;;;;5013805;28;20455;-61
2024/01/03 11:19:42;;;;;;;2.50;0.87;;;21.80;81.90;;;;;;5008571;28;20477;-62
2024/01/03 11:22:09;;;;;;;2.07;0.77;;;21.80;81.90;;;;;;5010626;28;20447;-56
2024/01/03 11:24:52;;;;;;;1.20;0.80;;;21.90;82.00;;;;;;5011552;28;20461;-58
2024/01/03 11:27:21;;;;;;;1.70;0.87;;;21.90;82.00;;;;;;5013693;28;21152;-57
2024/01/03 11:29:53;;;;;;;1.40;0.80;;;21.90;82.00;;;;;;5012530;28;20481;-59
2024/01/03 11:32:32;;;;;;;1.00;0.60;;;21.90;81.80;;;;;;5014648;28;20953;-63
2024/01/03 11:35:00;;;;;;;1.20;0.70;;;21.90;82.00;;;;;;5014376;28;20542;-60
2024/01/03 11:37:35;;;;;;;1.73;0.80;;;22.00;82.10;;;;;;5011898;28;20822;-60
2024/01/03 11:40:10;;;;;;;1.13;0.70;;;22.00;82.00;;;;;;5005826;28;20472;-58
2024/01/03 11:42:43;;;;;;;1.30;0.80;;;22.00;82.00;;;;;;5008712;28;20587;-59
2024/01/03 11:45:15;;;;;;;1.50;0.80;;;22.00;82.00;;;;;;5012041;28;20461;-56
2024/01/03 11:47:45;;;;;;;2.57;0.87;;;22.00;82.00;;;;;;5011497;28;20466;-57
2024/01/03 11:50:12;;;;;;;1.20;0.70;;;22.00;81.90;;;;;;5015230;28;20492;-58
2024/01/03 11:52:41;;;;;;;1.50;0.80;;;22.00;81.90;;;;;;5002268;28;27071;-59
2024/01/03 11:55:16;;;;;;;0.97;0.60;;;22.10;82.00;;;;;;5011685;28;20914;-58
2024/01/03 11:57:46;;;;;;;1.60;0.90;;;22.10;82.00;;;;;;5010386;28;20458;-58
2024/01/03 12:00:19;;;;;;;1.17;0.67;;;22.10;82.00;;;;;;5010027;28;20828;-61
2024/01/03 12:02:55;;;;;;;1.20;0.60;;;22.10;82.00;;;;;;5013761;28;20454;-61
2024/01/03 12:05:24;;;;;;;2.13;0.90;;;22.10;81.90;;;;;;5012655;28;20464;-57
2024/01/03 12:07:52;;;;;;;1.20;0.70;;;22.10;81.90;;;;;;5010746;28;20458;-59
2024/01/03 12:10:23;;;;;;;2.53;0.77;;;22.10;81.90;;;;;;5009154;28;21148;-58
2024/01/03 12:12:52;;;;;;;1.43;0.80;;;22.20;82.00;;;;;;5011771;28;20485;-61
2024/01/03 12:15:28;;;;;;;0.93;0.60;;;22.20;82.00;;;;;;5008093;28;20457;-59
2024/01/03 12:18:03;;;;;;;1.00;0.60;;;22.20;81.90;;;;;;5010259;28;21132;-58
2024/01/03 12:20:30;;;;;;;1.20;0.90;;;22.20;82.00;;;;;;5004570;28;20457;-59
2024/01/03 12:23:06;;;;;;;1.53;0.70;;;22.20;82.00;;;;;;5010365;28;20469;-59
2024/01/03 12:25:35;;;;;;;1.10;0.63;;;22.20;81.90;;;;;;5008330;28;20464;-55
2024/01/03 12:28:04;;;;;;;1.10;0.83;;;22.20;81.90;;;;;;5014917;28;20454;-58
2024/01/03 12:30:34;;;;;;;1.33;0.73;;;22.20;81.00;;;;;;5009995;28;21004;-60
2024/01/03 12:33:18;;;;;;;1.50;0.70;;;22.20;81.30;;;;;;5010495;28;20462;-57
2024/01/03 12:35:47;;;;;;;1.20;0.73;;;22.30;81.60;;;;;;5010493;28;20976;-62
2024/01/03 12:38:15;;;;;;;1.63;0.77;;;22.30;81.60;;;;;;5012635;28;20476;-60
2024/01/03 12:40:43;;;;;;;2.10;0.80;;;22.30;81.50;;;;;;5013314;28;20783;-58
2024/01/03 12:43:11;;;;;;;3.40;0.80;;;22.30;81.40;;;;;;5010148;28;20490;-60
2024/01/03 12:45:42;;;;;;;1.90;0.93;;;22.30;81.70;;;;;;5010934;28;20490;-59
2024/01/03 12:48:09;;;;;;;1.67;1.03;;;22.30;81.40;;;;;;5012994;28;21162;-55
2024/01/03 12:50:36;;;;;;;1.30;0.70;;;22.30;81.50;;;;;;5008073;28;20474;-57
2024/01/03 12:53:03;;;;;;;1.00;0.80;;;22.30;81.60;;;;;;5011593;28;20560;-56
2024/01/03 12:55:30;;;;;;;1.20;0.80;;;22.30;81.50;;;;;;5011306;28;20682;-56
2024/01/03 12:57:57;;;;;;;1.83;0.80;;;22.40;81.70;;;;;;5006385;28;20462;-60